Time;durP1;ratioP1;P1;durP2;ratioP2;P2;SDS_P1;SDS_P2;PMS_P1;PMS_P2;Temp;Humidity;BMP_temperature;BMP_pressure;BME280_temperature;BME280_humidity;BME280_pressure;Samples;Min_cycle;Max_cycle;Signal;HPM_P1;HPM_P2
2023/05/14 00:01:55;;;;;;;0.90;0.90;;;;;;;;;;4973308;28;20250;-93
2023/05/14 00:10:03;;;;;;;0.80;0.80;;;;;;;;;;5027933;28;20524;-91
2023/05/14 00:12:36;;;;;;;1.30;1.20;;;;;;;;;;5011093;28;20225;-92
2023/05/14 00:18:27;;;;;;;1.33;1.00;;;;;;;;;;5000826;28;20237;-94
2023/05/14 00:24:11;;;;;;;4.37;0.83;;;;;;;;;;4982469;28;20234;-93
2023/05/14 00:26:54;;;;;;;1.23;0.80;;;;;;;;;;4971701;28;20238;-93
2023/05/14 00:29:45;;;;;;;2.63;1.13;;;;;;;;;;4961329;29;20278;-92
2023/05/14 00:44:13;;;;;;;1.20;1.03;;;;;;;;;;4947241;29;20205;-93
2023/05/14 00:56:29;;;;;;;1.00;1.00;;;;;;;;;;4953358;29;20210;-92
2023/05/14 00:59:24;;;;;;;1.00;1.00;;;;;;;;;;4954533;29;20739;-95
2023/05/14 01:02:07;;;;;;;1.03;0.70;;;;;;;;;;4954761;29;20219;-94
2023/05/14 01:04:46;;;;;;;1.93;0.67;;;;;;;;;;4960363;29;20282;-93
2023/05/14 01:07:27;;;;;;;0.70;0.70;;;;;;;;;;4962463;29;20206;-91
2023/05/14 01:10:20;;;;;;;0.77;0.77;;;;;;;;;;4961921;29;20200;-93
2023/05/14 01:13:25;;;;;;;;;;;;;;;;;;;;;
2023/05/14 01:16:12;;;;;;;5.83;1.03;;;;;;;;;;4959520;29;20220;-92
2023/05/14 01:19:27;;;;;;;1.13;0.73;;;;;;;;;;4914628;29;20235;-94
2023/05/14 01:24:54;;;;;;;0.57;0.57;;;;;;;;;;4915499;29;20320;-94
2023/05/14 01:27:42;;;;;;;0.60;0.60;;;;;;;;;;4931841;29;20215;-93
2023/05/14 01:30:17;;;;;;;1.70;0.63;;;;;;;;;;4931699;29;20263;-93
2023/05/14 01:33:02;;;;;;;0.73;0.73;;;;;;;;;;4932357;29;20207;-92
2023/05/14 01:35:39;;;;;;;1.10;1.10;;;;;;;;;;4930916;29;20224;-94
2023/05/14 01:38:26;;;;;;;0.50;0.50;;;;;;;;;;4931900;29;20295;-93
2023/05/14 01:41:15;;;;;;;2.80;0.57;;;;;;;;;;4914110;29;20220;-94
2023/05/14 01:43:46;;;;;;;3.80;1.07;;;;;;;;;;4963799;28;20202;-93
2023/05/14 01:49:17;;;;;;;1.67;0.93;;;;;;;;;;4971046;28;20582;-93
2023/05/14 01:52:07;;;;;;;0.90;0.90;;;;;;;;;;4973514;28;20236;-94
2023/05/14 01:54:57;;;;;;;0.70;0.70;;;;;;;;;;4974868;28;20233;-92
2023/05/14 01:57:32;;;;;;;0.80;0.80;;;;;;;;;;4984548;28;20291;-91
2023/05/14 02:00:10;;;;;;;0.70;0.70;;;;;;;;;;4990200;28;20215;-92
2023/05/14 02:02:52;;;;;;;0.77;0.77;;;;;;;;;;4974646;28;20211;-93
2023/05/14 02:05:30;;;;;;;0.83;0.83;;;;;;;;;;4977605;28;20203;-92
2023/05/14 02:08:12;;;;;;;0.47;0.47;;;;;;;;;;4973555;28;20344;-93
2023/05/14 02:13:44;;;;;;;0.40;0.40;;;;;;;;;;4920466;28;20712;-94
2023/05/14 02:16:45;;;;;;;0.60;0.60;;;;;;;;;;4971410;28;20201;-93
2023/05/14 02:22:04;;;;;;;0.90;0.90;;;;;;;;;;4969389;28;20254;-92
2023/05/14 02:24:41;;;;;;;0.73;0.70;;;;;;;;;;4978584;28;20267;-95
2023/05/14 02:27:45;;;;;;;0.80;0.80;;;;;;;;;;4954539;29;20209;-95
2023/05/14 02:30:30;;;;;;;0.80;0.80;;;;;;;;;;4952548;29;20314;-92
2023/05/14 02:33:06;;;;;;;0.80;0.80;;;;;;;;;;4952903;29;20253;-93
2023/05/14 02:35:56;;;;;;;0.43;0.43;;;;;;;;;;4951526;29;20206;-92
2023/05/14 02:38:31;;;;;;;0.70;0.70;;;;;;;;;;4952511;29;20216;-95
2023/05/14 02:41:28;;;;;;;1.77;0.97;;;;;;;;;;4952490;29;20694;-94
2023/05/14 02:44:13;;;;;;;1.00;1.00;;;;;;;;;;4953465;28;20204;-92
2023/05/14 02:46:50;;;;;;;0.80;0.80;;;;;;;;;;4954778;29;20203;-93
2023/05/14 02:49:24;;;;;;;0.80;0.80;;;;;;;;;;4956149;29;20195;-94
2023/05/14 02:52:18;;;;;;;1.17;1.07;;;;;;;;;;4956184;29;20668;-93
2023/05/14 02:54:51;;;;;;;0.60;0.60;;;;;;;;;;4956419;29;20240;-93
2023/05/14 02:57:47;;;;;;;0.27;0.27;;;;;;;;;;4956025;29;20682;-93
2023/05/14 03:00:24;;;;;;;1.23;1.00;;;;;;;;;;4956623;29;20234;-91
2023/05/14 03:06:01;;;;;;;0.87;0.87;;;;;;;;;;4952506;29;20259;-93
2023/05/14 03:08:53;;;;;;;0.70;0.70;;;;;;;;;;4956977;29;20351;-94
2023/05/14 03:11:50;;;;;;;6.33;1.00;;;;;;;;;;4957134;28;20219;-92
2023/05/14 03:14:39;;;;;;;0.70;0.70;;;;;;;;;;4956811;29;20730;-92
2023/05/14 03:17:22;;;;;;;1.00;1.00;;;;;;;;;;4957582;28;20591;-94
2023/05/14 03:23:08;;;;;;;0.80;0.80;;;;;;;;;;4934656;29;20295;-94
2023/05/14 03:28:50;;;;;;;0.70;0.70;;;;;;;;;;4982885;28;20206;-93
2023/05/14 03:31:37;;;;;;;0.57;0.57;;;;;;;;;;4990432;28;20221;-95
2023/05/14 03:34:26;;;;;;;0.70;0.70;;;;;;;;;;4982459;28;20256;-93
2023/05/14 03:37:02;;;;;;;0.70;0.70;;;;;;;;;;4980204;28;20286;-93
2023/05/14 03:42:49;;;;;;;0.87;0.87;;;;;;;;;;4985408;28;20204;-93
2023/05/14 03:45:34;;;;;;;0.70;0.70;;;;;;;;;;4995966;28;20200;-94
2023/05/14 03:51:02;;;;;;;0.40;0.40;;;;;;;;;;4953683;29;20217;-92
2023/05/14 03:53:50;;;;;;;1.10;0.73;;;;;;;;;;4953967;29;20766;-93
2023/05/14 03:59:43;;;;;;;0.80;0.80;;;;;;;;;;4994759;28;20228;-94
2023/05/14 04:02:22;;;;;;;0.97;0.97;;;;;;;;;;4994720;28;20604;-93
2023/05/14 04:05:00;;;;;;;1.20;1.13;;;;;;;;;;4993789;28;20236;-94
2023/05/14 04:07:57;;;;;;;1.07;0.67;;;;;;;;;;4995373;28;20252;-94
2023/05/14 04:11:02;;;;;;;;;;;;;;;;;;;;;
2023/05/14 04:22:31;;;;;;;;;;;;;;;;;;;;;
2023/05/14 04:27:55;;;;;;;1.70;1.13;;;;;;;;;;4950069;29;20210;-92
2023/05/14 04:30:31;;;;;;;1.07;1.07;;;;;;;;;;4955454;29;20223;-92
2023/05/14 04:33:18;;;;;;;1.87;1.20;;;;;;;;;;4954671;29;20210;-93
2023/05/14 04:36:03;;;;;;;;;;;;;;;;;;;;;
2023/05/14 04:38:50;;;;;;;1.83;1.30;;;;;;;;;;4955694;29;21019;-92
2023/05/14 04:41:19;;;;;;;2.83;0.90;;;;;;;;;;4959113;29;20209;-93
2023/05/14 04:43:57;;;;;;;1.17;1.17;;;;;;;;;;4961133;29;20215;-93
2023/05/14 04:46:37;;;;;;;2.30;1.10;;;;;;;;;;4954557;29;20201;-94
2023/05/14 04:49:16;;;;;;;0.90;0.90;;;;;;;;;;4954891;29;20205;-94
2023/05/14 04:51:50;;;;;;;0.80;0.80;;;;;;;;;;4955563;29;20201;-93
2023/05/14 04:54:25;;;;;;;1.30;1.30;;;;;;;;;;4954985;29;20194;-94
2023/05/14 04:57:02;;;;;;;0.73;0.70;;;;;;;;;;4954964;28;20210;-93
2023/05/14 04:59:42;;;;;;;0.77;0.77;;;;;;;;;;4954352;29;20273;-92
2023/05/14 05:02:34;;;;;;;0.73;0.73;;;;;;;;;;4973463;28;20198;-94
2023/05/14 05:05:22;;;;;;;1.40;1.30;;;;;;;;;;4974753;28;20210;-93
2023/05/14 05:07:57;;;;;;;1.60;1.50;;;;;;;;;;4973186;28;20223;-91
2023/05/14 05:13:39;;;;;;;;;;;;;;;;;;;;;
2023/05/14 05:16:12;;;;;;;1.83;1.50;;;;;;;;;;4914989;29;20659;-93
2023/05/14 05:18:49;;;;;;;1.60;1.37;;;;;;;;;;4953948;28;20211;-92
2023/05/14 05:21:20;;;;;;;1.30;1.20;;;;;;;;;;4975734;28;20212;-92
2023/05/14 05:24:12;;;;;;;1.40;1.30;;;;;;;;;;4974540;28;20205;-91
2023/05/14 05:29:38;;;;;;;1.77;1.67;;;;;;;;;;4977611;28;20594;-92
2023/05/14 05:32:07;;;;;;;1.00;1.00;;;;;;;;;;4982721;28;20232;-92
2023/05/14 05:34:36;;;;;;;1.30;1.20;;;;;;;;;;4985330;28;20220;-92
2023/05/14 05:39:57;;;;;;;2.13;1.87;;;;;;;;;;4971907;28;20235;-90
2023/05/14 05:42:36;;;;;;;1.53;1.43;;;;;;;;;;4978601;28;20210;-92
2023/05/14 05:45:07;;;;;;;0.97;0.97;;;;;;;;;;4978936;28;20232;-93
2023/05/14 05:47:39;;;;;;;1.40;1.30;;;;;;;;;;4975842;28;20600;-91
2023/05/14 05:50:14;;;;;;;3.30;0.93;;;;;;;;;;4973320;28;20215;-91
2023/05/14 05:52:58;;;;;;;1.83;1.73;;;;;;;;;;4973576;28;20202;-92
2023/05/14 05:55:27;;;;;;;1.37;1.27;;;;;;;;;;4966009;28;20215;-91
2023/05/14 05:58:16;;;;;;;2.07;1.97;;;;;;;;;;4973991;28;20200;-91
2023/05/14 06:01:02;;;;;;;;;;;;;;;;;;;;;
2023/05/14 06:03:46;;;;;;;4.33;1.43;;;;;;;;;;4979049;28;20210;-93
2023/05/14 06:06:15;;;;;;;2.20;1.53;;;;;;;;;;4976561;28;20202;-91
2023/05/14 06:08:52;;;;;;;1.77;1.67;;;;;;;;;;4993548;28;20216;-91
2023/05/14 06:11:28;;;;;;;1.63;1.30;;;;;;;;;;4993163;28;20290;-91
2023/05/14 06:14:01;;;;;;;3.20;1.80;;;;;;;;;;4993029;28;20221;-92
2023/05/14 06:16:31;;;;;;;1.50;1.40;;;;;;;;;;4993535;28;20236;-93
2023/05/14 06:19:06;;;;;;;1.20;1.10;;;;;;;;;;4993749;28;20682;-91
2023/05/14 06:21:41;;;;;;;3.53;1.00;;;;;;;;;;4996781;28;20208;-92
2023/05/14 06:24:24;;;;;;;3.87;1.47;;;;;;;;;;4997186;28;20228;-93
2023/05/14 06:27:10;;;;;;;1.17;1.00;;;;;;;;;;4982537;28;20348;-90
2023/05/14 06:29:40;;;;;;;1.63;1.53;;;;;;;;;;4983572;28;20581;-92
2023/05/14 06:32:15;;;;;;;1.97;1.20;;;;;;;;;;4973959;28;20198;-91
2023/05/14 06:34:56;;;;;;;1.63;1.53;;;;;;;;;;4980853;28;20205;-89
2023/05/14 06:37:27;;;;;;;0.90;0.90;;;;;;;;;;4981817;28;20371;-89
2023/05/14 06:40:09;;;;;;;1.73;1.33;;;;;;;;;;4981598;28;20233;-90
2023/05/14 06:42:52;;;;;;;1.73;1.63;;;;;;;;;;4983446;28;20198;-91
2023/05/14 06:45:53;;;;;;;3.37;1.17;;;;;;;;;;4985346;28;20216;-91
2023/05/14 06:54:10;;;;;;;1.67;1.57;;;;;;;;;;4981101;28;20213;-92
2023/05/14 06:56:56;;;;;;;2.00;1.83;;;;;;;;;;4979226;28;20206;-90
2023/05/14 06:59:49;;;;;;;3.63;1.90;;;;;;;;;;4979966;28;20240;-89
2023/05/14 07:02:32;;;;;;;2.03;1.93;;;;;;;;;;4979646;28;20225;-91
2023/05/14 07:11:08;;;;;;;1.27;1.17;;;;;;;;;;4979760;28;20228;-90
2023/05/14 07:20:19;;;;;;;1.30;1.20;;;;;;;;;;4949357;29;20214;-91
2023/05/14 07:29:23;;;;;;;;;;;;;;;;;;;;;
2023/05/14 07:35:15;;;;;;;1.33;1.33;;;;;;;;;;4911189;29;20292;-93
2023/05/14 07:41:21;;;;;;;1.83;1.73;;;;;;;;;;4944014;29;20246;-91
2023/05/14 07:47:24;;;;;;;1.93;1.70;;;;;;;;;;4890184;29;20205;-92
2023/05/14 07:50:11;;;;;;;1.50;1.40;;;;;;;;;;4874133;29;20586;-91
2023/05/14 07:58:55;;;;;;;1.57;1.47;;;;;;;;;;4862148;29;20199;-92
2023/05/14 08:01:25;;;;;;;2.13;1.97;;;;;;;;;;4922871;29;20331;-93
2023/05/14 08:06:55;;;;;;;2.07;1.80;;;;;;;;;;4917022;29;20200;-91
2023/05/14 08:09:31;;;;;;;1.70;1.60;;;;;;;;;;4972670;28;20205;-91
2023/05/14 08:27:39;;;;;;;1.87;1.77;;;;;;;;;;4902706;29;20244;-92
2023/05/14 08:49:33;;;;;;;4.43;3.07;;;;;;;;;;5133307;28;20719;-93
2023/05/14 08:58:19;;;;;;;2.30;2.20;;;;;;;;;;5136009;28;20200;-92
2023/05/14 09:01:11;;;;;;;3.20;2.47;;;;;;;;;;5096954;27;20236;-93
2023/05/14 09:10:07;;;;;;;1.90;1.80;;;;;;;;;;5121020;28;20693;-91
2023/05/14 09:12:54;;;;;;;;;;;;;;;;;;;;;
2023/05/14 09:15:40;;;;;;;2.50;2.30;;;;;;;;;;5104437;28;20247;-92
2023/05/14 09:21:07;;;;;;;2.07;1.87;;;;;;;;;;5107323;28;20229;-91
2023/05/14 09:27:09;;;;;;;2.10;1.87;;;;;;;;;;5047016;28;20227;-95
2023/05/14 09:32:56;;;;;;;2.10;1.97;;;;;;;;;;5021734;28;20822;-92
2023/05/14 09:38:16;;;;;;;1.80;1.40;;;;;;;;;;5106846;28;20293;-94
2023/05/14 09:46:53;;;;;;;1.63;1.53;;;;;;;;;;5087554;28;20226;-93
2023/05/14 09:49:32;;;;;;;2.10;2.00;;;;;;;;;;5095243;28;20240;-93
2023/05/14 09:58:13;;;;;;;2.83;2.07;;;;;;;;;;5092105;28;20584;-91
2023/05/14 10:00:52;;;;;;;1.43;1.23;;;;;;;;;;5062636;28;20249;-90
2023/05/14 10:06:45;;;;;;;1.70;1.47;;;;;;;;;;5033713;28;20734;-93
2023/05/14 10:12:49;;;;;;;1.23;1.23;;;;;;;;;;5054665;28;20250;-92
2023/05/14 10:15:44;;;;;;;1.63;1.53;;;;;;;;;;5056416;28;20738;-90
2023/05/14 10:18:39;;;;;;;2.63;1.07;;;;;;;;;;5071513;28;20313;-91
2023/05/14 10:24:06;;;;;;;2.13;1.40;;;;;;;;;;5078943;28;20811;-92
2023/05/14 10:26:51;;;;;;;1.37;1.27;;;;;;;;;;5080164;28;20283;-91
2023/05/14 10:29:26;;;;;;;2.87;1.37;;;;;;;;;;5083744;28;20240;-92
2023/05/14 10:37:59;;;;;;;1.03;1.03;;;;;;;;;;5132962;22;20354;-91
2023/05/14 10:43:35;;;;;;;6.07;1.50;;;;;;;;;;5127103;27;20244;-93
2023/05/14 10:46:06;;;;;;;1.13;1.13;;;;;;;;;;5136889;27;20235;-89
2023/05/14 10:48:35;;;;;;;1.40;1.30;;;;;;;;;;5133273;27;20331;-91
2023/05/14 10:51:32;;;;;;;1.20;1.10;;;;;;;;;;5135514;27;20254;-90
2023/05/14 10:54:15;;;;;;;1.53;1.50;;;;;;;;;;5109925;27;20220;-93
2023/05/14 10:56:47;;;;;;;1.60;1.37;;;;;;;;;;5134077;27;20296;-91
2023/05/14 10:59:31;;;;;;;3.23;1.37;;;;;;;;;;5133095;27;20692;-91
2023/05/14 11:02:14;;;;;;;;;;;;;;;;;;;;;
2023/05/14 11:05:02;;;;;;;0.73;0.73;;;;;;;;;;5135185;27;20216;-91
2023/05/14 11:07:36;;;;;;;1.33;1.10;;;;;;;;;;5135940;27;20315;-88
2023/05/14 11:10:13;;;;;;;3.10;1.13;;;;;;;;;;5137705;27;20222;-92
2023/05/14 11:15:34;;;;;;;1.60;1.50;;;;;;;;;;5084080;28;20785;-92
2023/05/14 11:18:20;;;;;;;1.70;1.60;;;;;;;;;;5095745;28;20230;-93
2023/05/14 11:23:52;;;;;;;3.83;2.17;;;;;;;;;;5092479;28;20222;-91
2023/05/14 11:26:33;;;;;;;1.80;1.70;;;;;;;;;;5097579;28;20255;-91
2023/05/14 11:32:20;;;;;;;2.97;2.13;;;;;;;;;;5096931;28;20266;-92
2023/05/14 11:35:01;;;;;;;1.97;1.83;;;;;;;;;;5101265;28;20244;-93
2023/05/14 11:37:39;;;;;;;2.43;2.03;;;;;;;;;;5098302;28;20230;-91
2023/05/14 11:40:47;;;;;;;1.83;1.73;;;;;;;;;;5107618;28;20206;-92
2023/05/14 11:49:28;;;;;;;1.80;1.70;;;;;;;;;;5088145;28;20228;-92
2023/05/14 11:52:30;;;;;;;1.87;1.77;;;;;;;;;;5102386;28;20219;-93
2023/05/14 12:01:23;;;;;;;1.30;1.20;;;;;;;;;;4995175;28;20225;-93
2023/05/14 12:04:25;;;;;;;2.00;1.33;;;;;;;;;;5008927;28;20229;-93
2023/05/14 12:38:40;;;;;;;2.07;1.97;;;;;;;;;;5070227;26;20233;-93
2023/05/14 12:41:30;;;;;;;1.50;1.43;;;;;;;;;;5066856;28;20281;-93
2023/05/14 12:44:23;;;;;;;1.90;1.80;;;;;;;;;;5054014;28;20219;-92
2023/05/14 12:47:16;;;;;;;1.50;1.40;;;;;;;;;;5049630;28;20737;-92
2023/05/14 12:50:05;;;;;;;2.07;1.97;;;;;;;;;;5052848;28;20219;-93
2023/05/14 12:53:00;;;;;;;1.20;1.07;;;;;;;;;;5065904;28;20298;-90
2023/05/14 12:55:48;;;;;;;1.53;1.53;;;;;;;;;;5071302;28;20259;-92
2023/05/14 12:58:24;;;;;;;1.40;1.40;;;;;;;;;;5072849;28;20218;-92
2023/05/14 13:01:07;;;;;;;1.27;1.23;;;;;;;;;;5069323;28;20253;-93
2023/05/14 13:06:51;;;;;;;1.63;1.63;;;;;;;;;;5150309;22;20264;-94
2023/05/14 13:13:18;;;;;;;;;;;;;;;;;;;;;
2023/05/14 13:34:02;;;;;;;3.10;1.87;;;;;;;;;;5088131;28;20236;-92
2023/05/14 13:39:41;;;;;;;;;;;;;;;;;;;;;
2023/05/14 13:45:19;;;;;;;2.23;2.13;;;;;;;;;;5151968;22;20260;-94
2023/05/14 13:51:07;;;;;;;3.07;2.27;;;;;;;;;;5076691;28;20626;-93
2023/05/14 13:53:42;;;;;;;2.23;2.03;;;;;;;;;;5068940;28;20214;-93
2023/05/14 13:56:26;;;;;;;4.10;2.00;;;;;;;;;;5130424;28;20193;-93
2023/05/14 14:01:48;;;;;;;4.90;2.70;;;;;;;;;;5132114;28;20192;-93
2023/05/14 14:07:20;;;;;;;1.90;1.80;;;;;;;;;;5132945;28;20677;-93
2023/05/14 14:10:08;;;;;;;3.50;2.77;;;;;;;;;;5134212;28;20207;-92
2023/05/14 14:27:14;;;;;;;2.57;2.47;;;;;;;;;;5108962;28;20218;-93
2023/05/14 14:39:18;;;;;;;3.63;2.80;;;;;;;;;;5113527;22;20231;-93
2023/05/14 14:53:43;;;;;;;2.60;2.43;;;;;;;;;;5118052;22;20231;-91
2023/05/14 14:59:28;;;;;;;2.70;2.50;;;;;;;;;;5257709;22;20244;-91
2023/05/14 15:02:03;;;;;;;2.60;2.50;;;;;;;;;;5033686;28;20240;-92
2023/05/14 15:04:44;;;;;;;4.60;2.97;;;;;;;;;;5046484;28;20245;-90
2023/05/14 15:10:07;;;;;;;4.13;2.77;;;;;;;;;;5054208;23;20229;-90
2023/05/14 15:18:42;;;;;;;3.70;3.40;;;;;;;;;;5085917;28;20230;-92
2023/05/14 15:23:46;;;;;;;3.87;3.57;;;;;;;;;;5033547;28;20244;-91
2023/05/14 15:26:18;;;;;;;3.43;3.13;;;;;;;;;;5017130;28;20629;-91
2023/05/14 15:35:01;;;;;;;1.43;1.33;;;;;;;;;;5015686;28;20658;-91
2023/05/14 15:41:24;;;;;;;;;;;;;;;;;;;;;
2023/05/14 15:44:02;;;;;;;2.37;2.13;;;;;;;;;;5050123;28;20509;-92
2023/05/14 15:46:40;;;;;;;3.57;2.20;;;;;;;;;;5035704;28;20254;-93
2023/05/14 15:49:10;;;;;;;3.10;2.20;;;;;;;;;;5033270;28;20219;-90
2023/05/14 15:51:59;;;;;;;1.80;1.70;;;;;;;;;;5036797;28;20227;-92
2023/05/14 15:54:43;;;;;;;1.87;1.77;;;;;;;;;;5035399;28;20216;-93
2023/05/14 15:57:14;;;;;;;3.83;2.40;;;;;;;;;;5050405;28;20258;-92
2023/05/14 15:59:50;;;;;;;5.33;3.30;;;;;;;;;;5040930;28;20445;-93
2023/05/14 16:02:29;;;;;;;2.63;2.20;;;;;;;;;;5042865;28;20287;-91
2023/05/14 16:05:19;;;;;;;3.40;2.60;;;;;;;;;;5036211;28;20242;-90
2023/05/14 16:07:54;;;;;;;5.27;2.83;;;;;;;;;;5041631;28;20254;-92
2023/05/14 16:10:35;;;;;;;3.87;3.57;;;;;;;;;;5035397;28;20663;-90
2023/05/14 16:18:47;;;;;;;5.27;3.30;;;;;;;;;;5047289;28;20366;-92
2023/05/14 16:21:20;;;;;;;2.97;2.77;;;;;;;;;;5607742;22;20262;-91
2023/05/14 16:24:43;;;;;;;;;;;;;;;;;;;;;
2023/05/14 16:27:42;;;;;;;3.47;3.17;;;;;;;;;;5083199;28;20921;-91
2023/05/14 16:30:16;;;;;;;3.40;2.40;;;;;;;;;;5058396;28;20223;-90
2023/05/14 16:33:10;;;;;;;5.23;3.57;;;;;;;;;;5052917;28;20732;-90
2023/05/14 16:35:42;;;;;;;6.63;3.30;;;;;;;;;;5052905;28;20223;-91
2023/05/14 16:38:14;;;;;;;4.13;3.83;;;;;;;;;;5056557;28;20260;-91
2023/05/14 16:40:43;;;;;;;5.63;2.83;;;;;;;;;;5057586;28;20227;-92
2023/05/14 16:43:23;;;;;;;5.17;3.37;;;;;;;;;;5054660;28;20229;-90
2023/05/14 16:46:32;;;;;;;5.20;3.03;;;;;;;;;;5266183;23;20239;-91
2023/05/14 16:49:15;;;;;;;3.63;3.33;;;;;;;;;;5073717;28;20645;-92
2023/05/14 16:51:52;;;;;;;8.40;4.13;;;;;;;;;;5074331;28;20225;-90
2023/05/14 16:54:34;;;;;;;3.90;3.23;;;;;;;;;;5073245;28;20260;-90
2023/05/14 16:57:09;;;;;;;5.33;2.83;;;;;;;;;;5071124;28;20245;-92
2023/05/14 16:59:49;;;;;;;8.70;3.13;;;;;;;;;;5075231;28;20246;-91
2023/05/14 17:05:33;;;;;;;3.57;2.97;;;;;;;;;;5031567;28;20235;-89
2023/05/14 17:08:03;;;;;;;4.57;2.57;;;;;;;;;;5066508;28;20727;-90
2023/05/14 17:10:45;;;;;;;5.10;4.60;;;;;;;;;;5082107;28;20213;-90
2023/05/14 17:13:14;;;;;;;4.77;3.03;;;;;;;;;;5085457;28;20249;-91
2023/05/14 17:15:49;;;;;;;5.83;3.47;;;;;;;;;;5073446;28;20665;-91
2023/05/14 17:18:20;;;;;;;7.70;4.07;;;;;;;;;;5072006;28;20274;-90
2023/05/14 17:20:59;;;;;;;3.47;3.03;;;;;;;;;;5091683;28;20347;-90
2023/05/14 17:23:33;;;;;;;3.53;3.30;;;;;;;;;;5091314;28;20233;-89
2023/05/14 17:26:16;;;;;;;;;;;;;;;;;;;;;
2023/05/14 17:32:16;;;;;;;7.37;4.07;;;;;;;;;;5092406;28;20256;-90
2023/05/14 17:34:52;;;;;;;4.57;3.10;;;;;;;;;;5107899;28;20233;-90
2023/05/14 17:40:41;;;;;;;5.87;3.20;;;;;;;;;;5103262;28;20226;-90
2023/05/14 17:43:37;;;;;;;3.37;2.83;;;;;;;;;;5089790;28;20691;-92
2023/05/14 18:04:38;;;;;;;6.33;3.90;;;;;;;;;;4993429;28;20240;-90
2023/05/14 18:13:16;;;;;;;5.20;3.70;;;;;;;;;;5076302;28;20221;-92
2023/05/14 21:04:18;;;;;;;12.10;5.83;;;;;;;;;;5027621;28;20334;-93
2023/05/14 21:13:31;;;;;;;14.93;5.83;;;;;;;;;;4956702;28;20234;-93
2023/05/14 21:16:11;;;;;;;6.27;4.07;;;;;;;;;;5007130;28;20226;-92
2023/05/14 21:37:21;;;;;;;6.67;4.30;;;;;;;;;;4960007;28;20228;-91
2023/05/14 21:39:56;;;;;;;13.03;5.33;;;;;;;;;;5018749;28;20235;-90
2023/05/14 21:42:48;;;;;;;8.37;4.10;;;;;;;;;;5004553;28;20225;-91
2023/05/14 21:45:36;;;;;;;7.07;3.97;;;;;;;;;;5004064;28;20280;-91
2023/05/14 21:51:30;;;;;;;7.23;3.87;;;;;;;;;;4990450;28;20737;-93
2023/05/14 21:54:21;;;;;;;8.40;3.83;;;;;;;;;;5007278;28;20226;-93
2023/05/14 21:59:53;;;;;;;4.40;4.03;;;;;;;;;;4993330;28;20230;-92
2023/05/14 22:08:58;;;;;;;3.30;3.00;;;;;;;;;;5055064;28;20255;-93
2023/05/14 22:14:31;;;;;;;;;;;;;;;;;;;;;
2023/05/14 22:20:13;;;;;;;2.93;2.00;;;;;;;;;;5043806;28;20220;-93
2023/05/14 22:22:56;;;;;;;4.43;3.00;;;;;;;;;;5057376;28;20236;-93
2023/05/14 22:26:02;;;;;;;2.27;2.07;;;;;;;;;;5062011;28;20252;-91
2023/05/14 22:28:56;;;;;;;3.80;2.70;;;;;;;;;;5048511;28;20232;-90
2023/05/14 22:31:47;;;;;;;2.93;1.90;;;;;;;;;;5037089;28;20287;-92
2023/05/14 22:40:31;;;;;;;2.33;2.20;;;;;;;;;;5035747;28;20632;-91
2023/05/14 22:43:01;;;;;;;2.77;1.90;;;;;;;;;;5028256;28;20239;-90
2023/05/14 22:45:47;;;;;;;2.13;1.93;;;;;;;;;;5043882;28;20239;-91
2023/05/14 22:48:46;;;;;;;2.47;1.97;;;;;;;;;;5037961;28;20223;-92
2023/05/14 22:51:34;;;;;;;1.83;1.70;;;;;;;;;;5035144;28;20643;-94
2023/05/14 22:57:07;;;;;;;1.40;1.30;;;;;;;;;;5007707;28;20228;-91
2023/05/14 22:59:48;;;;;;;3.63;2.30;;;;;;;;;;5038325;28;20232;-88
2023/05/14 23:02:33;;;;;;;2.57;1.53;;;;;;;;;;5034391;28;20328;-89
2023/05/14 23:13:20;;;;;;;1.73;1.63;;;;;;;;;;5030214;28;20299;-91
2023/05/14 23:15:52;;;;;;;2.57;2.43;;;;;;;;;;5034605;28;20286;-92
2023/05/14 23:21:27;;;;;;;4.40;1.90;;;;;;;;;;5033206;28;20304;-92
2023/05/14 23:24:09;;;;;;;;;;;;;;;;;;;;;
2023/05/14 23:29:38;;;;;;;1.83;1.73;;;;;;;;;;5042789;28;20230;-91
2023/05/14 23:32:11;;;;;;;2.80;1.70;;;;;;;;;;5033680;28;20255;-92
2023/05/14 23:34:54;;;;;;;1.93;1.77;;;;;;;;;;5034662;28;20235;-92
2023/05/14 23:37:55;;;;;;;;;;;;;;;;;;;;;
2023/05/14 23:43:28;;;;;;;1.97;1.60;;;;;;;;;;5031334;28;20226;-95
2023/05/14 23:46:17;;;;;;;1.90;1.80;;;;;;;;;;5043291;28;20237;-95
2023/05/14 23:48:59;;;;;;;2.37;2.10;;;;;;;;;;5048995;28;20224;-95
2023/05/14 23:51:44;;;;;;;2.00;1.90;;;;;;;;;;5051694;28;20224;-94
2023/05/14 23:54:37;;;;;;;;;;;;;;;;;;;;;
